Time;durP1;ratioP1;P1;durP2;ratioP2;P2;SDS_P1;SDS_P2;PMS_P1;PMS_P2;Temp;Humidity;BMP_temperature;BMP_pressure;BME280_temperature;BME280_humidity;BME280_pressure;Samples;Min_cycle;Max_cycle;Signal;HPM_P1;HPM_P2
2021/05/04 00:02:04;;;;;;;6.78;3.22;;;;;;;9.31;100.00;100039.31;5060639;28;20094;-80
2021/05/04 00:04:40;;;;;;;11.45;3.72;;;;;;;-145.48;100.00;59605.97;5064075;28;20060;-80
2021/05/04 00:07:06;;;;;;;;;;;;;;;9.24;100.00;100045.88;5062576;28;20028;-81
2021/05/04 00:09:31;;;;;;;10.50;4.50;;;;;;;8.76;100.00;100023.69;5058408;28;20007;-80
2021/05/04 00:11:57;;;;;;;11.60;4.75;;;;;;;8.65;100.00;100043.59;5063145;28;20013;-80
2021/05/04 00:14:22;;;;;;;8.55;5.03;;;;;;;8.47;100.00;100034.78;5058909;28;20029;-79
2021/05/04 00:16:48;;;;;;;13.25;5.22;;;;;;;8.30;100.00;100033.78;5065399;28;20025;-79
2021/05/04 00:19:13;;;;;;;7.82;5.38;;;;;;;8.17;100.00;100029.19;5062560;28;20070;-79
2021/05/04 00:21:39;;;;;;;10.90;5.78;;;;;;;8.25;100.00;100029.69;5063681;28;20028;-80
2021/05/04 00:24:05;;;;;;;9.13;5.53;;;;;;;8.10;100.00;100004.94;5068116;28;20040;-79
2021/05/04 00:26:31;;;;;;;9.65;5.43;;;;;;;7.89;100.00;100005.97;5067409;28;20029;-79
2021/05/04 00:28:56;;;;;;;9.32;6.03;;;;;;;7.98;100.00;100001.13;5058714;28;20025;-80
2021/05/04 00:31:21;;;;;;;12.57;6.32;;;;;;;-145.48;100.00;59605.97;5070708;28;20032;-79
2021/05/04 00:33:47;;;;;;;11.48;7.03;;;;;;;-145.48;100.00;59605.97;5062127;28;20020;-79
2021/05/04 00:36:12;;;;;;;12.98;6.00;;;;;;;-145.48;100.00;113706.31;5062421;28;20399;-79
2021/05/04 00:38:37;;;;;;;12.25;5.88;;;;;;;-145.48;100.00;59605.97;5056845;28;20025;-79
2021/05/04 00:41:03;;;;;;;11.55;5.88;;;;;;;-145.48;100.00;59605.97;5064608;28;20074;-78
2021/05/04 00:43:30;;;;;;;9.35;5.65;;;;;;;-145.48;100.00;59605.97;5067102;28;20131;-79
2021/05/04 00:46:05;;;;;;;11.38;5.05;;;;;;;-145.48;100.00;59605.97;5059805;28;20028;-79
2021/05/04 00:48:37;;;;;;;12.52;5.65;;;;;;;-145.48;100.00;59605.97;5060129;28;20782;-79
2021/05/04 00:51:04;;;;;;;12.57;5.72;;;;;;;-145.48;100.00;59605.97;5062387;28;20038;-79
2021/05/04 00:53:30;;;;;;;7.75;5.18;;;;;;;-145.48;100.00;59605.97;5061700;28;20453;-79
2021/05/04 00:55:58;;;;;;;10.10;5.65;;;;;;;-145.48;100.00;59605.97;5062065;28;20357;-79
2021/05/04 00:58:23;;;;;;;6.93;6.15;;;;;;;-145.48;100.00;59605.97;5065704;28;20024;-79
2021/05/04 01:00:49;;;;;;;9.77;5.72;;;;;;;-145.48;100.00;59605.97;5060741;28;20044;-80
2021/05/04 01:03:15;;;;;;;11.05;6.13;;;;;;;-145.48;100.00;59605.97;5059073;28;20053;-79
2021/05/04 01:05:41;;;;;;;14.55;5.75;;;;;;;-145.48;100.00;59605.97;5060822;28;20033;-79
2021/05/04 01:08:06;;;;;;;8.75;5.03;;;;;;;-145.48;100.00;59605.97;5062643;28;20032;-79
2021/05/04 01:10:32;;;;;;;7.60;4.68;;;;;;;-145.48;100.00;59605.97;5062889;28;20032;-78
2021/05/04 01:12:57;;;;;;;9.65;4.97;;;;;;;-145.48;100.00;59605.97;5065310;28;20070;-79
2021/05/04 01:15:23;;;;;;;12.10;5.57;;;;;;;-145.48;100.00;59605.97;5061839;28;20029;-79
2021/05/04 01:17:49;;;;;;;8.48;4.50;;;;;;;-145.48;100.00;59605.97;5055576;28;21686;-78
2021/05/04 01:20:14;;;;;;;9.15;4.90;;;;;;;-145.48;100.00;59605.97;5056981;28;20033;-79
2021/05/04 01:22:40;;;;;;;8.95;3.65;;;;;;;-145.48;100.00;59605.97;5061316;28;20047;-79
2021/05/04 01:25:07;;;;;;;7.25;4.35;;;;;;;-145.48;100.00;59605.97;5063034;28;20033;-78
2021/05/04 01:27:33;;;;;;;7.97;3.53;;;;;;;-145.48;100.00;59605.97;5060633;28;20029;-79
2021/05/04 01:29:58;;;;;;;6.32;4.63;;;;;;;-145.48;100.00;59605.97;5058097;28;20116;-79
2021/05/04 01:32:24;;;;;;;8.75;4.82;;;;;;;-145.48;100.00;59605.97;5058704;28;20033;-79
2021/05/04 01:34:49;;;;;;;6.28;4.78;;;;;;;-145.48;100.00;59605.97;5062545;28;20021;-79
2021/05/04 01:37:14;;;;;;;11.20;5.50;;;;;;;-145.48;100.00;59605.97;5061230;28;20029;-79
2021/05/04 01:39:51;;;;;;;5.45;3.70;;;;;;;-145.48;100.00;59605.97;5058466;28;20350;-79
2021/05/04 01:42:18;;;;;;;7.80;3.92;;;;;;;-145.48;100.00;59605.97;5079900;28;20032;-79
2021/05/04 01:44:44;;;;;;;3.50;3.20;;;;;;;-145.48;100.00;59605.97;5078198;28;20020;-79
2021/05/04 01:47:10;;;;;;;5.97;4.03;;;;;;;-145.48;100.00;59605.97;5075766;28;20037;-79
2021/05/04 01:49:36;;;;;;;10.88;4.07;;;;;;;-145.48;100.00;59605.97;5070748;28;20033;-79
2021/05/04 01:52:04;;;;;;;9.13;3.45;;;;;;;-145.48;100.00;59605.97;5055171;28;20066;-78
2021/05/04 01:54:30;;;;;;;5.18;3.58;;;;;;;-145.48;100.00;59605.97;5060979;28;20033;-79
2021/05/04 01:56:58;;;;;;;8.07;3.88;;;;;;;-145.48;100.00;59605.97;5063007;28;20095;-79
2021/05/04 01:59:24;;;;;;;11.15;3.35;;;;;;;-145.48;100.00;59605.97;5058287;28;20051;-78
2021/05/04 02:01:50;;;;;;;4.38;2.67;;;;;;;-145.48;100.00;59605.97;5058718;28;20039;-79
2021/05/04 02:04:15;;;;;;;4.05;2.50;;;;;;;-145.48;100.00;59605.97;5059414;28;20076;-79
2021/05/04 02:06:41;;;;;;;6.22;2.83;;;;;;;-145.48;100.00;59605.97;5059661;28;20039;-79
2021/05/04 02:09:09;;;;;;;5.05;2.88;;;;;;;-145.48;100.00;59605.97;5063167;28;20036;-79
2021/05/04 02:11:35;;;;;;;4.65;3.67;;;;;;;-145.48;100.00;59605.97;5056734;28;20086;-79
2021/05/04 02:14:00;;;;;;;3.15;2.50;;;;;;;-145.48;100.00;59605.97;5060314;28;20032;-78
2021/05/04 02:16:27;;;;;;;3.30;2.67;;;;;;;-145.48;100.00;59605.97;5062276;28;20016;-79
2021/05/04 02:18:52;;;;;;;5.30;2.17;;;;;;;-145.48;100.00;59605.97;5060589;28;20036;-79
2021/05/04 02:21:18;;;;;;;6.43;2.47;;;;;;;-145.48;100.00;59605.97;5055887;28;20043;-79
2021/05/04 02:23:44;;;;;;;3.58;2.25;;;;;;;-145.48;100.00;59605.97;5057132;28;20072;-79
2021/05/04 02:26:11;;;;;;;3.58;2.47;;;;;;;-145.48;100.00;59605.97;5058257;28;20765;-79
2021/05/04 02:28:37;;;;;;;6.90;2.55;;;;;;;-145.48;100.00;59605.97;5060230;28;20028;-78
2021/05/04 02:31:02;;;;;;;4.30;2.30;;;;;;;-145.48;100.00;59605.97;5059370;28;20519;-81
2021/05/04 02:33:29;;;;;;;5.47;2.85;;;;;;;-145.48;100.00;59605.97;5075807;28;20043;-81
2021/05/04 02:35:56;;;;;;;5.53;2.42;;;;;;;-145.48;100.00;59605.97;5068215;28;20016;-80
2021/05/04 02:38:21;;;;;;;5.15;2.53;;;;;;;-145.48;100.00;59605.97;5065519;28;20079;-80
2021/05/04 02:40:46;;;;;;;6.55;3.35;;;;;;;-145.48;100.00;59605.97;5062922;28;20017;-80
2021/05/04 02:43:12;;;;;;;5.95;2.35;;;;;;;-145.48;100.00;59605.97;5063958;28;20029;-80
2021/05/04 02:45:37;;;;;;;2.88;2.28;;;;;;;-145.48;100.00;59605.97;5061239;28;20575;-80
2021/05/04 02:48:02;;;;;;;7.65;2.63;;;;;;;-145.48;100.00;59605.97;5058168;28;20029;-81
2021/05/04 02:50:28;;;;;;;7.47;2.50;;;;;;;-145.48;100.00;59605.97;5061503;28;20848;-80
2021/05/04 02:52:53;;;;;;;4.22;2.22;;;;;;;-145.48;100.00;59605.97;5063102;28;20029;-80
2021/05/04 02:55:18;;;;;;;3.00;1.88;;;;;;;-145.48;100.00;59605.97;5055055;28;20091;-81
2021/05/04 02:57:44;;;;;;;8.82;2.22;;;;;;;-145.48;100.00;59605.97;5058511;28;20075;-80
2021/05/04 03:00:10;;;;;;;7.40;2.50;;;;;;;-145.48;100.00;59605.97;5057740;28;20041;-81
2021/05/04 03:02:35;;;;;;;4.53;2.10;;;;;;;-145.48;100.00;59605.97;5060644;28;20029;-81
2021/05/04 03:05:00;;;;;;;5.07;2.53;;;;;;;-145.48;100.00;59605.97;5058460;28;20021;-81
2021/05/04 03:07:26;;;;;;;5.32;2.00;;;;;;;-145.48;100.00;59605.97;5062154;28;20468;-80
2021/05/04 03:09:51;;;;;;;2.60;1.98;;;;;;;-145.48;100.00;59605.97;5064590;28;20025;-80
2021/05/04 03:12:16;;;;;;;6.78;1.88;;;;;;;-145.48;100.00;59605.97;5061160;28;20028;-80
2021/05/04 03:14:42;;;;;;;4.70;2.22;;;;;;;-145.48;100.00;59605.97;5057975;28;20048;-80
2021/05/04 03:17:07;;;;;;;3.67;2.17;;;;;;;-145.48;100.00;59605.97;5057816;28;20025;-80
2021/05/04 03:19:32;;;;;;;3.08;2.55;;;;;;;-145.48;100.00;59605.97;5054182;28;20029;-80
2021/05/04 03:21:57;;;;;;;3.88;2.47;;;;;;;-145.48;100.00;59605.97;5058390;28;20104;-80
2021/05/04 03:24:23;;;;;;;5.50;3.00;;;;;;;-145.48;100.00;59605.97;5059670;28;20033;-81
2021/05/04 03:26:48;;;;;;;5.75;2.88;;;;;;;-145.48;100.00;59605.97;5061209;28;20088;-81
2021/05/04 03:29:13;;;;;;;4.72;3.10;;;;;;;-145.48;100.00;59605.97;5061171;28;20469;-80
2021/05/04 03:31:39;;;;;;;4.65;3.08;;;;;;;-145.48;100.00;59605.97;5064039;28;20099;-81
2021/05/04 03:34:04;;;;;;;4.15;2.80;;;;;;;-145.48;100.00;59605.97;5059783;28;20017;-81
2021/05/04 03:36:30;;;;;;;10.32;3.47;;;;;;;-145.48;100.00;59605.97;5061306;28;20020;-80
2021/05/04 03:38:55;;;;;;;5.85;3.60;;;;;;;-145.48;100.00;59605.97;5058156;28;20021;-81
2021/05/04 03:41:21;;;;;;;5.32;3.13;;;;;;;-145.48;100.00;59605.97;5060702;28;20040;-81
2021/05/04 03:43:46;;;;;;;7.07;3.17;;;;;;;-145.48;100.00;59605.97;5056878;28;20107;-81
2021/05/04 03:46:11;;;;;;;6.85;3.83;;;;;;;-145.48;100.00;59605.97;5055056;28;20050;-81
2021/05/04 03:48:37;;;;;;;6.50;3.42;;;;;;;-145.48;100.00;59605.97;5059654;28;20384;-80
2021/05/04 03:51:02;;;;;;;4.32;2.60;;;;;;;-145.48;100.00;59605.97;5062485;28;20024;-80
2021/05/04 03:53:27;;;;;;;4.93;3.42;;;;;;;-145.48;100.00;59605.97;5061902;28;20032;-80
2021/05/04 03:55:53;;;;;;;5.53;2.53;;;;;;;-145.48;100.00;59605.97;5061179;28;20738;-80
2021/05/04 03:58:18;;;;;;;4.07;2.45;;;;;;;-145.48;100.00;59605.97;5056711;28;20078;-80
2021/05/04 04:00:43;;;;;;;3.45;2.15;;;;;;;-145.48;100.00;59605.97;5060869;28;20419;-80
2021/05/04 04:03:09;;;;;;;8.27;4.80;;;;;;;-145.48;100.00;59605.97;5065507;28;20044;-81
2021/05/04 04:05:34;;;;;;;5.95;4.20;;;;;;;-145.48;100.00;59605.97;5067465;28;20024;-81
2021/05/04 04:08:00;;;;;;;7.13;4.22;;;;;;;-145.48;100.00;59605.97;5052492;28;20071;-81
2021/05/04 04:10:25;;;;;;;8.15;4.40;;;;;;;-145.48;100.00;59605.97;5064893;28;20047;-81
2021/05/04 04:12:50;;;;;;;8.50;4.90;;;;;;;-145.48;100.00;59605.97;5067032;28;20068;-80
2021/05/04 04:15:16;;;;;;;6.82;3.92;;;;;;;-145.48;100.00;59605.97;5060923;28;20029;-79
2021/05/04 04:17:41;;;;;;;7.63;3.97;;;;;;;-145.48;100.00;59605.97;5063296;28;20059;-80
2021/05/04 04:20:08;;;;;;;8.68;4.05;;;;;;;-145.48;100.00;59605.97;5067623;28;20029;-80
2021/05/04 04:22:34;;;;;;;7.90;3.35;;;;;;;-145.48;100.00;59605.97;5050256;28;20041;-80
2021/05/04 04:27:49;;;;;;;9.38;3.15;;;;;;;-145.48;100.00;59605.97;5063585;28;20045;-81
2021/05/04 04:30:16;;;;;;;9.38;3.25;;;;;;;-145.48;100.00;59605.97;5065962;28;20036;-80
2021/05/04 04:32:43;;;;;;;7.60;2.92;;;;;;;-145.48;100.00;59605.97;5059816;28;20059;-80
2021/05/04 04:35:10;;;;;;;6.25;2.83;;;;;;;-145.48;100.00;59605.97;5066259;28;20035;-80
2021/05/04 04:37:35;;;;;;;9.90;3.03;;;;;;;-145.48;100.00;59605.97;5064343;28;20025;-81
2021/05/04 04:40:00;;;;;;;9.60;2.75;;;;;;;-145.48;100.00;59605.97;5065826;28;20036;-80
2021/05/04 04:42:27;;;;;;;10.40;3.70;;;;;;;-145.48;100.00;59605.97;5043543;28;20030;-81
2021/05/04 04:44:52;;;;;;;12.30;3.03;;;;;;;-145.48;100.00;59605.97;5073727;28;20028;-80
2021/05/04 04:47:17;;;;;;;11.88;2.80;;;;;;;-145.48;100.00;59605.97;5061261;28;20033;-80
2021/05/04 04:49:43;;;;;;;15.25;4.18;;;;;;;-145.48;100.00;59605.97;5061771;28;20081;-80
2021/05/04 04:52:08;;;;;;;21.35;3.58;;;;;;;-145.48;100.00;59605.97;5065770;28;20095;-81
2021/05/04 04:54:35;;;;;;;19.58;4.70;;;;;;;-145.48;100.00;59605.97;5049713;28;20028;-80
2021/05/04 04:57:01;;;;;;;17.35;3.85;;;;;;;-145.48;100.00;59605.97;5070104;28;20353;-81
2021/05/04 04:59:28;;;;;;;21.13;4.32;;;;;;;-145.48;100.00;59605.97;5055115;28;20048;-81
2021/05/04 05:01:53;;;;;;;8.40;2.90;;;;;;;-145.48;100.00;59605.97;5063620;28;20036;-81
2021/05/04 05:04:19;;;;;;;12.68;4.07;;;;;;;-145.48;100.00;59605.97;5064751;28;20028;-80
2021/05/04 05:06:44;;;;;;;23.80;4.15;;;;;;;-145.48;100.00;59605.97;5065979;28;20024;-80
2021/05/04 05:09:10;;;;;;;18.65;4.43;;;;;;;-145.48;100.00;59605.97;5064178;28;20111;-80
2021/05/04 05:11:36;;;;;;;13.65;4.13;;;;;;;-145.48;100.00;59605.97;5072633;28;20054;-80
2021/05/04 05:14:04;;;;;;;20.23;3.88;;;;;;;-145.48;100.00;59605.97;5064943;28;20037;-79
2021/05/04 05:16:30;;;;;;;15.65;3.28;;;;;;;-145.48;100.00;59605.97;5069591;28;20021;-80
2021/05/04 05:18:55;;;;;;;18.30;3.75;;;;;;;-145.48;100.00;59605.97;5063751;28;20450;-79
2021/05/04 05:21:21;;;;;;;25.45;4.43;;;;;;;-145.48;100.00;59605.97;5059346;28;20037;-77
2021/05/04 05:23:47;;;;;;;19.55;3.97;;;;;;;-145.48;100.00;59605.97;5064373;28;20055;-78
2021/05/04 05:26:14;;;;;;;17.42;3.75;;;;;;;-145.48;100.00;59605.97;5056621;28;20107;-77
2021/05/04 05:28:39;;;;;;;12.10;3.47;;;;;;;-145.48;100.00;59605.97;5067371;28;20033;-79
2021/05/04 05:31:05;;;;;;;10.05;2.33;;;;;;;-145.48;100.00;59605.97;5066948;28;20031;-80
2021/05/04 05:33:30;;;;;;;14.75;3.13;;;;;;;-145.48;100.00;59605.97;5068863;28;20822;-81
2021/05/04 05:35:55;;;;;;;9.18;2.83;;;;;;;-145.48;100.00;59605.97;5056705;28;20024;-79
2021/05/04 05:38:21;;;;;;;15.13;3.72;;;;;;;-145.48;100.00;59605.97;5062571;28;20025;-80
2021/05/04 05:40:46;;;;;;;16.35;4.28;;;;;;;-145.48;100.00;59605.97;5059504;28;20112;-81
2021/05/04 05:43:11;;;;;;;15.95;3.03;;;;;;;-145.48;100.00;59605.97;5063943;28;20685;-79
2021/05/04 05:45:37;;;;;;;15.40;3.58;;;;;;;-145.48;100.00;59605.97;5064976;28;20055;-79
2021/05/04 05:48:03;;;;;;;14.00;4.40;;;;;;;-145.48;100.00;59605.97;5064586;28;20036;-80
2021/05/04 05:50:28;;;;;;;7.95;2.53;;;;;;;-145.48;100.00;59605.97;5062767;28;20032;-79
2021/05/04 05:52:53;;;;;;;12.65;4.18;;;;;;;-145.48;100.00;59605.97;5065898;28;20032;-79
2021/05/04 05:55:19;;;;;;;19.70;5.22;;;;;;;-145.48;100.00;59605.97;5061426;28;20074;-80
2021/05/04 05:57:44;;;;;;;13.32;2.95;;;;;;;-145.48;100.00;59605.97;5056506;28;20024;-80
2021/05/04 06:00:13;;;;;;;12.52;3.58;;;;;;;-145.48;100.00;59605.97;5059859;28;20044;-80
2021/05/04 06:02:38;;;;;;;21.40;5.35;;;;;;;-145.48;100.00;59605.97;5050073;28;20036;-80
2021/05/04 06:05:06;;;;;;;18.83;4.45;;;;;;;-145.48;100.00;59605.97;5062952;28;20090;-78
2021/05/04 06:07:31;;;;;;;24.08;3.92;;;;;;;-145.48;100.00;59605.97;5064947;28;20048;-79
2021/05/04 06:09:56;;;;;;;27.80;5.75;;;;;;;-145.48;100.00;59605.97;5062075;28;20021;-79
2021/05/04 06:12:22;;;;;;;21.80;5.60;;;;;;;-145.48;100.00;59605.97;5052393;28;20051;-77
2021/05/04 06:14:47;;;;;;;38.10;7.22;;;;;;;-145.48;100.00;59605.97;5061699;28;20025;-78
2021/05/04 06:17:13;;;;;;;21.38;5.57;;;;;;;-145.48;100.00;59605.97;5061473;28;20031;-78
2021/05/04 06:19:38;;;;;;;22.23;6.32;;;;;;;-145.48;100.00;59605.97;5056992;28;20043;-78
2021/05/04 06:22:04;;;;;;;17.27;4.00;;;;;;;-145.48;100.00;59605.97;5059490;28;20861;-78
2021/05/04 06:24:29;;;;;;;21.13;4.38;;;;;;;-145.48;100.00;59605.97;5058585;28;20108;-78
2021/05/04 06:26:55;;;;;;;21.35;4.40;;;;;;;-145.48;100.00;59605.97;5066847;28;20097;-78
2021/05/04 06:29:20;;;;;;;25.33;4.45;;;;;;;-145.48;100.00;59605.97;5063967;28;20043;-79
2021/05/04 06:31:50;;;;;;;24.15;4.70;;;;;;;-145.48;100.00;59605.97;5057708;28;20469;-79
2021/05/04 06:34:16;;;;;;;15.90;4.18;;;;;;;-145.48;100.00;59605.97;5056257;28;20678;-79
2021/05/04 06:36:41;;;;;;;34.40;6.57;;;;;;;-145.48;100.00;59605.97;5062986;28;20021;-79
2021/05/04 06:39:06;;;;;;;21.55;5.00;;;;;;;-145.48;100.00;59605.97;5058933;28;20030;-79
2021/05/04 06:41:35;;;;;;;23.63;4.38;;;;;;;-145.48;100.00;59605.97;5068050;28;20040;-79
2021/05/04 06:44:04;;;;;;;21.67;4.53;;;;;;;-145.48;100.00;59605.97;5071435;28;20036;-79
2021/05/04 06:46:31;;;;;;;24.20;4.78;;;;;;;-145.48;100.00;59605.97;5069009;28;20033;-78
2021/05/04 06:48:57;;;;;;;22.83;4.82;;;;;;;-145.48;100.00;59605.97;5061838;28;20033;-78
2021/05/04 06:51:22;;;;;;;17.00;4.05;;;;;;;-145.48;100.00;59605.97;5062236;28;21002;-79
2021/05/04 06:53:48;;;;;;;29.55;4.75;;;;;;;-145.48;100.00;59605.97;5057373;28;20028;-79
2021/05/04 06:56:13;;;;;;;13.40;3.67;;;;;;;-145.48;100.00;59605.97;5061862;28;20102;-79
2021/05/04 06:58:39;;;;;;;19.75;5.18;;;;;;;-145.48;100.00;59605.97;5055829;28;20039;-80
2021/05/04 07:01:04;;;;;;;13.75;4.30;;;;;;;-145.48;100.00;59605.97;5061440;28;20045;-78
2021/05/04 07:03:29;;;;;;;20.75;3.85;;;;;;;-145.48;100.00;59605.97;5056576;28;20091;-79
2021/05/04 07:05:54;;;;;;;19.85;3.47;;;;;;;-145.48;100.00;59605.97;5066962;28;20042;-79
2021/05/04 07:08:20;;;;;;;23.45;4.55;;;;;;;-145.48;100.00;59605.97;5056885;28;20042;-79
2021/05/04 07:10:45;;;;;;;16.15;3.60;;;;;;;-145.48;100.00;59605.97;5054961;28;20385;-80
2021/05/04 07:13:15;;;;;;;14.57;3.17;;;;;;;-145.48;100.00;59605.97;5049983;28;20067;-79
2021/05/04 07:15:40;;;;;;;14.45;3.00;;;;;;;-145.48;100.00;59605.97;5051888;28;20456;-79
2021/05/04 07:18:09;;;;;;;13.52;3.63;;;;;;;-145.48;100.00;59605.97;5053428;28;20047;-79
2021/05/04 07:20:34;;;;;;;19.38;4.03;;;;;;;-145.48;100.00;59605.97;5058542;28;20025;-79
2021/05/04 07:23:00;;;;;;;23.02;4.00;;;;;;;-145.48;100.00;59605.97;5056252;28;20436;-79
2021/05/04 07:25:25;;;;;;;18.25;3.88;;;;;;;-145.48;100.00;59605.97;5063674;28;20032;-79
2021/05/04 07:27:53;;;;;;;15.25;3.33;;;;;;;-145.48;100.00;59605.97;5057916;28;20792;-79
2021/05/04 07:30:19;;;;;;;12.10;2.10;;;;;;;-145.48;100.00;59605.97;5061030;28;20049;-79
2021/05/04 07:32:44;;;;;;;14.60;4.07;;;;;;;-145.48;100.00;59605.97;5055215;28;20033;-79
2021/05/04 07:35:10;;;;;;;17.73;4.13;;;;;;;-145.48;100.00;59605.97;5056904;28;20029;-79
2021/05/04 07:37:39;;;;;;;15.60;3.45;;;;;;;-145.48;100.00;59605.97;5051054;28;20039;-79
2021/05/04 07:40:05;;;;;;;20.00;4.05;;;;;;;-145.48;100.00;59605.97;5054498;28;20047;-79
2021/05/04 07:42:30;;;;;;;17.23;3.53;;;;;;;-145.48;100.00;59605.97;5049507;28;20029;-79
2021/05/04 07:44:56;;;;;;;15.00;3.83;;;;;;;-145.48;100.00;59605.97;5060261;28;20047;-80
2021/05/04 07:47:21;;;;;;;19.27;4.25;;;;;;;-145.48;100.00;59605.97;5051453;28;20029;-79
2021/05/04 07:49:48;;;;;;;19.65;3.40;;;;;;;-145.48;100.00;59605.97;5063084;28;20078;-78
2021/05/04 07:52:13;;;;;;;14.57;3.10;;;;;;;-145.48;100.00;59605.97;5055928;28;20024;-79
2021/05/04 07:54:39;;;;;;;18.92;4.32;;;;;;;-145.48;100.00;59605.97;5065753;28;20507;-80
2021/05/04 07:57:05;;;;;;;16.88;4.03;;;;;;;-145.48;100.00;59605.97;5062471;28;20125;-79
2021/05/04 07:59:31;;;;;;;19.98;5.22;;;;;;;-145.48;100.00;59605.97;5063469;28;20040;-79
2021/05/04 08:01:58;;;;;;;25.63;4.32;;;;;;;-145.48;100.00;59605.97;5056983;28;20370;-79
2021/05/04 08:04:36;;;;;;;24.20;4.93;;;;;;;-145.48;100.00;59605.97;5057829;28;20120;-79
2021/05/04 08:07:06;;;;;;;17.70;3.53;;;;;;;-145.48;100.00;59605.97;5058024;28;20465;-79
2021/05/04 08:09:31;;;;;;;28.63;4.55;;;;;;;-145.48;100.00;59605.97;5065059;28;20060;-79
2021/05/04 08:11:57;;;;;;;24.13;4.50;;;;;;;-145.48;100.00;59605.97;5048057;28;20056;-78
2021/05/04 08:14:23;;;;;;;20.75;4.57;;;;;;;-145.48;100.00;59605.97;5052154;28;20124;-78
2021/05/04 08:16:49;;;;;;;18.75;3.30;;;;;;;-145.48;100.00;59605.97;5047594;28;20036;-78
2021/05/04 08:19:14;;;;;;;14.23;3.95;;;;;;;-145.48;100.00;59605.97;5044550;28;20029;-79
2021/05/04 08:21:42;;;;;;;24.80;4.32;;;;;;;-145.48;100.00;59605.97;5068688;28;20028;-77
2021/05/04 08:24:10;;;;;;;20.10;4.28;;;;;;;-145.48;100.00;59605.97;5064462;28;20045;-78
2021/05/04 08:26:35;;;;;;;22.85;4.20;;;;;;;-145.48;100.00;59605.97;5064200;28;20049;-78
2021/05/04 08:29:01;;;;;;;23.92;4.88;;;;;;;-145.48;100.00;59605.97;5065780;28;20041;-78
2021/05/04 08:31:26;;;;;;;24.50;4.82;;;;;;;-145.48;100.00;59605.97;5053799;28;20443;-79
2021/05/04 08:33:52;;;;;;;11.75;3.10;;;;;;;-145.48;100.00;59605.97;5060474;28;20081;-79
2021/05/04 08:36:17;;;;;;;22.33;3.92;;;;;;;-145.48;100.00;59605.97;5060900;28;20570;-78
2021/05/04 08:38:43;;;;;;;26.05;4.90;;;;;;;-145.48;100.00;59605.97;5053696;28;20032;-79
2021/05/04 08:41:08;;;;;;;23.35;4.47;;;;;;;-145.48;100.00;59605.97;5061917;28;20039;-79
2021/05/04 08:43:34;;;;;;;21.40;4.63;;;;;;;-145.48;100.00;59605.97;5059493;28;20048;-79
2021/05/04 08:46:01;;;;;;;24.08;4.30;;;;;;;-145.48;100.00;59605.97;5054374;28;20827;-78
2021/05/04 08:48:28;;;;;;;25.00;5.78;;;;;;;-145.48;100.00;59605.97;5056769;28;20033;-80
2021/05/04 08:50:55;;;;;;;16.55;3.85;;;;;;;-145.48;100.00;59605.97;5063140;28;20032;-79
2021/05/04 08:53:20;;;;;;;14.77;3.45;;;;;;;-145.48;100.00;59605.97;5056491;28;20040;-79
2021/05/04 08:55:46;;;;;;;26.27;5.28;;;;;;;-145.48;100.00;59605.97;5053381;28;20028;-78
2021/05/04 08:58:11;;;;;;;28.33;6.65;;;;;;;-145.48;100.00;59605.97;5052830;28;20119;-78
2021/05/04 09:00:36;;;;;;;29.27;3.95;;;;;;;-145.48;100.00;59605.97;5064001;28;20048;-78
2021/05/04 09:03:08;;;;;;;19.83;3.45;;;;;;;-145.48;100.00;59605.97;5065647;28;20048;-78
2021/05/04 09:06:12;;;;;;;19.38;3.60;;;;;;;-145.48;100.00;59605.97;5057558;28;20041;-77
2021/05/04 09:11:28;;;;;;;25.33;4.38;;;;;;;-145.48;100.00;59605.97;5025541;28;20477;-77
2021/05/04 09:14:01;;;;;;;18.75;3.70;;;;;;;-145.48;100.00;59605.97;5021875;28;20033;-78
2021/05/04 09:21:34;;;;;;;10.82;3.00;;;;;;;-145.48;100.00;59605.97;5030371;28;20044;-78
2021/05/04 09:24:16;;;;;;;13.48;2.58;;;;;;;-145.48;100.00;59605.97;5027016;28;20043;-77
2021/05/04 09:26:42;;;;;;;11.25;1.25;;;;;;;-145.48;100.00;59605.97;5026468;28;20037;-78
2021/05/04 09:29:09;;;;;;;10.13;2.30;;;;;;;-145.48;100.00;59605.97;5025572;28;20472;-78
2021/05/04 09:31:36;;;;;;;8.30;2.72;;;;;;;-145.48;100.00;59605.97;5021064;28;20033;-77
2021/05/04 09:34:13;;;;;;;18.42;3.00;;;;;;;-145.48;100.00;59605.97;5026022;28;20072;-77
2021/05/04 09:36:50;;;;;;;12.75;2.65;;;;;;;-145.48;100.00;59605.97;5024130;28;20105;-78
2021/05/04 09:39:27;;;;;;;11.25;2.00;;;;;;;-145.48;100.00;59605.97;5042719;28;20047;-78
2021/05/04 09:41:54;;;;;;;7.30;1.70;;;;;;;-145.48;100.00;59605.97;5045159;28;20035;-78
2021/05/04 09:44:41;;;;;;;13.15;2.65;;;;;;;-145.48;100.00;59605.97;5050669;28;20148;-78
2021/05/04 09:47:13;;;;;;;14.40;2.03;;;;;;;-145.48;100.00;59605.97;5053608;28;20161;-78
2021/05/04 09:49:40;;;;;;;7.60;1.30;;;;;;;-145.48;100.00;59605.97;5058842;28;20039;-77
2021/05/04 09:52:42;;;;;;;6.78;1.15;;;;;;;-145.48;100.00;59605.97;5055385;28;20098;-77
2021/05/04 09:55:08;;;;;;;9.85;2.85;;;;;;;-145.48;100.00;59605.97;5056113;28;20031;-77
2021/05/04 09:57:42;;;;;;;6.13;1.45;;;;;;;-145.48;100.00;59605.97;5048505;28;20025;-78
2021/05/04 10:00:13;;;;;;;5.45;1.73;;;;;;;-145.48;100.00;59605.97;5050633;28;20060;-77
2021/05/04 10:02:40;;;;;;;6.10;2.10;;;;;;;-145.48;100.00;59605.97;5052750;28;20025;-76
2021/05/04 10:05:14;;;;;;;12.45;2.10;;;;;;;-145.48;100.00;59605.97;5057034;28;20219;-77
2021/05/04 10:07:41;;;;;;;6.60;1.13;;;;;;;-145.48;100.00;59605.97;5048295;28;20491;-77
2021/05/04 10:10:09;;;;;;;10.23;2.72;;;;;;;-145.48;100.00;59605.97;5064832;28;20032;-78
2021/05/04 10:12:39;;;;;;;7.95;1.60;;;;;;;-145.48;100.00;59605.97;5073139;28;20025;-78
2021/05/04 10:15:10;;;;;;;5.10;1.27;;;;;;;-145.48;100.00;59605.97;5064318;28;20028;-79
2021/05/04 10:17:37;;;;;;;8.48;1.50;;;;;;;-145.48;100.00;59605.97;5057701;28;20056;-79
2021/05/04 10:20:18;;;;;;;10.70;2.15;;;;;;;-145.48;100.00;59605.97;5064235;28;20048;-79
2021/05/04 10:22:44;;;;;;;10.57;1.58;;;;;;;-145.48;100.00;59605.97;5049928;28;20769;-80
2021/05/04 10:25:16;;;;;;;11.48;1.38;;;;;;;-145.48;100.00;59605.97;5061769;28;20037;-79
2021/05/04 10:27:44;;;;;;;9.45;1.40;;;;;;;-145.48;100.00;59605.97;5047845;28;20064;-79
2021/05/04 10:30:11;;;;;;;10.32;1.30;;;;;;;-145.48;100.00;59605.97;5054734;28;20828;-77
2021/05/04 10:32:51;;;;;;;10.82;2.28;;;;;;;-145.48;100.00;59605.97;5057389;28;20054;-78
2021/05/04 10:35:28;;;;;;;8.10;1.80;;;;;;;-145.48;100.00;59605.97;5050290;28;20032;-78
2021/05/04 10:38:05;;;;;;;6.32;1.48;;;;;;;-145.48;100.00;59605.97;5043916;28;20093;-79
2021/05/04 10:40:35;;;;;;;11.68;2.45;;;;;;;-145.48;100.00;59605.97;5055273;28;20593;-79
2021/05/04 10:43:02;;;;;;;9.05;1.67;;;;;;;-145.48;100.00;59605.97;5056458;28;20383;-78
2021/05/04 10:45:39;;;;;;;13.05;1.55;;;;;;;-145.48;100.00;59605.97;5055721;28;20024;-78
2021/05/04 10:48:05;;;;;;;6.60;1.92;;;;;;;-145.48;100.00;59605.97;5046040;28;20029;-77
2021/05/04 10:50:56;;;;;;;12.02;1.30;;;;;;;-145.48;100.00;59605.97;5054346;28;20028;-79
2021/05/04 10:53:26;;;;;;;11.20;1.80;;;;;;;-145.48;100.00;59605.97;5060123;28;20066;-79
2021/05/04 10:55:51;;;;;;;12.13;1.08;;;;;;;-145.48;100.00;59605.97;5061047;28;20021;-80
2021/05/04 10:58:17;;;;;;;5.32;1.30;;;;;;;-145.48;100.00;59605.97;5057838;28;20043;-79
2021/05/04 11:00:48;;;;;;;9.75;2.85;;;;;;;-145.48;100.00;59605.97;5050923;28;20076;-78
2021/05/04 11:03:32;;;;;;;11.48;1.20;;;;;;;-145.48;100.00;59605.97;5055595;28;20064;-80
2021/05/04 11:06:08;;;;;;;7.20;1.30;;;;;;;-145.48;100.00;59605.97;5054376;28;20028;-78
2021/05/04 11:08:40;;;;;;;10.90;1.15;;;;;;;-145.48;100.00;59605.97;5050605;28;20043;-79
2021/05/04 11:11:36;;;;;;;3.83;1.42;;;;;;;-145.48;100.00;59605.97;5055103;28;20025;-78
2021/05/04 11:14:03;;;;;;;9.13;1.27;;;;;;;-145.48;100.00;59605.97;5043278;28;20631;-77
2021/05/04 11:16:46;;;;;;;7.35;1.20;;;;;;;-145.48;100.00;59605.97;5051444;28;20103;-79
2021/05/04 11:19:30;;;;;;;14.57;2.42;;;;;;;-145.48;100.00;59605.97;5052601;28;20625;-78